sensor_id;sensor_type;location;lat;lon;timestamp;P1;durP1;ratioP1;P2;durP2;ratioP2
52724;SDS011;38621;52.830;6.914;2024-02-28T00:01:50;173.40;;;163.85;;
52724;SDS011;38621;52.830;6.914;2024-02-28T00:04:16;184.10;;;170.00;;
52724;SDS011;38621;52.830;6.914;2024-02-28T00:06:42;160.25;;;145.65;;
52724;SDS011;38621;52.830;6.914;2024-02-28T00:09:07;172.57;;;159.40;;
52724;SDS011;38621;52.830;6.914;2024-02-28T00:11:33;121.75;;;112.05;;
52724;SDS011;38621;52.830;6.914;2024-02-28T00:13:59;139.02;;;125.90;;
52724;SDS011;38621;52.830;6.914;2024-02-28T00:16:27;154.88;;;141.65;;
52724;SDS011;38621;52.830;6.914;2024-02-28T00:18:53;173.32;;;158.27;;
52724;SDS011;38621;52.830;6.914;2024-02-28T00:21:19;148.05;;;134.85;;
52724;SDS011;38621;52.830;6.914;2024-02-28T00:23:45;187.25;;;171.93;;
52724;SDS011;38621;52.830;6.914;2024-02-28T00:26:13;174.93;;;153.32;;
52724;SDS011;38621;52.830;6.914;2024-02-28T00:28:39;174.32;;;143.13;;
52724;SDS011;38621;52.830;6.914;2024-02-28T00:31:05;137.20;;;123.97;;
52724;SDS011;38621;52.830;6.914;2024-02-28T00:33:30;151.30;;;137.25;;
52724;SDS011;38621;52.830;6.914;2024-02-28T00:35:56;131.85;;;115.10;;
52724;SDS011;38621;52.830;6.914;2024-02-28T00:38:22;133.88;;;121.85;;
52724;SDS011;38621;52.830;6.914;2024-02-28T00:40:48;173.57;;;156.98;;
52724;SDS011;38621;52.830;6.914;2024-02-28T00:43:13;127.40;;;115.68;;
52724;SDS011;38621;52.830;6.914;2024-02-28T00:45:39;154.82;;;141.60;;
52724;SDS011;38621;52.830;6.914;2024-02-28T00:48:05;173.77;;;148.05;;
52724;SDS011;38621;52.830;6.914;2024-02-28T00:50:31;144.35;;;129.25;;
52724;SDS011;38621;52.830;6.914;2024-02-28T00:52:56;125.28;;;113.28;;
52724;SDS011;38621;52.830;6.914;2024-02-28T00:55:22;153.82;;;139.90;;
52724;SDS011;38621;52.830;6.914;2024-02-28T00:57:48;149.90;;;134.23;;
52724;SDS011;38621;52.830;6.914;2024-02-28T01:00:13;166.95;;;152.82;;
52724;SDS011;38621;52.830;6.914;2024-02-28T01:02:39;147.90;;;134.93;;
52724;SDS011;38621;52.830;6.914;2024-02-28T01:05:06;138.43;;;92.03;;
52724;SDS011;38621;52.830;6.914;2024-02-28T01:07:32;137.90;;;123.95;;
52724;SDS011;38621;52.830;6.914;2024-02-28T01:09:58;147.43;;;114.60;;
52724;SDS011;38621;52.830;6.914;2024-02-28T01:12:24;133.07;;;122.43;;
52724;SDS011;38621;52.830;6.914;2024-02-28T01:14:50;122.82;;;110.65;;
52724;SDS011;38621;52.830;6.914;2024-02-28T01:17:15;125.18;;;112.32;;
52724;SDS011;38621;52.830;6.914;2024-02-28T01:19:41;113.40;;;101.47;;
52724;SDS011;38621;52.830;6.914;2024-02-28T01:22:07;133.65;;;121.93;;
52724;SDS011;38621;52.830;6.914;2024-02-28T01:24:34;119.13;;;108.80;;
52724;SDS011;38621;52.830;6.914;2024-02-28T01:26:59;112.78;;;101.63;;
52724;SDS011;38621;52.830;6.914;2024-02-28T01:29:25;115.65;;;98.80;;
52724;SDS011;38621;52.830;6.914;2024-02-28T01:31:51;122.82;;;111.43;;
52724;SDS011;38621;52.830;6.914;2024-02-28T01:34:17;124.28;;;106.50;;
52724;SDS011;38621;52.830;6.914;2024-02-28T01:36:43;113.50;;;101.50;;
52724;SDS011;38621;52.830;6.914;2024-02-28T01:39:09;105.75;;;95.65;;
52724;SDS011;38621;52.830;6.914;2024-02-28T01:41:35;105.75;;;91.82;;
52724;SDS011;38621;52.830;6.914;2024-02-28T01:44:00;106.55;;;95.80;;
52724;SDS011;38621;52.830;6.914;2024-02-28T01:46:27;109.63;;;97.80;;
52724;SDS011;38621;52.830;6.914;2024-02-28T01:48:56;106.03;;;98.05;;
52724;SDS011;38621;52.830;6.914;2024-02-28T01:51:23;88.75;;;80.75;;
52724;SDS011;38621;52.830;6.914;2024-02-28T01:53:52;104.35;;;95.63;;
52724;SDS011;38621;52.830;6.914;2024-02-28T01:56:20;96.20;;;85.90;;
52724;SDS011;38621;52.830;6.914;2024-02-28T01:58:48;98.63;;;86.80;;
52724;SDS011;38621;52.830;6.914;2024-02-28T02:01:15;103.25;;;94.85;;
52724;SDS011;38621;52.830;6.914;2024-02-28T02:03:42;99.22;;;89.95;;
52724;SDS011;38621;52.830;6.914;2024-02-28T02:06:08;99.72;;;89.88;;
52724;SDS011;38621;52.830;6.914;2024-02-28T02:08:36;92.20;;;82.95;;
52724;SDS011;38621;52.830;6.914;2024-02-28T02:11:02;93.80;;;86.53;;
52724;SDS011;38621;52.830;6.914;2024-02-28T02:13:28;100.85;;;91.95;;
52724;SDS011;38621;52.830;6.914;2024-02-28T02:15:53;92.18;;;84.55;;
52724;SDS011;38621;52.830;6.914;2024-02-28T02:18:19;94.03;;;79.28;;
52724;SDS011;38621;52.830;6.914;2024-02-28T02:20:46;108.35;;;98.07;;
52724;SDS011;38621;52.830;6.914;2024-02-28T02:23:15;101.85;;;69.82;;
52724;SDS011;38621;52.830;6.914;2024-02-28T02:25:47;94.75;;;86.30;;
52724;SDS011;38621;52.830;6.914;2024-02-28T02:28:14;113.35;;;102.28;;
52724;SDS011;38621;52.830;6.914;2024-02-28T02:30:40;106.75;;;91.97;;
52724;SDS011;38621;52.830;6.914;2024-02-28T02:33:07;103.53;;;80.07;;
52724;SDS011;38621;52.830;6.914;2024-02-28T02:35:33;99.18;;;88.07;;
52724;SDS011;38621;52.830;6.914;2024-02-28T02:37:59;97.28;;;85.47;;
52724;SDS011;38621;52.830;6.914;2024-02-28T02:40:25;89.75;;;82.07;;
52724;SDS011;38621;52.830;6.914;2024-02-28T02:42:51;95.15;;;86.35;;
52724;SDS011;38621;52.830;6.914;2024-02-28T02:45:17;100.78;;;90.03;;
52724;SDS011;38621;52.830;6.914;2024-02-28T02:47:42;86.70;;;78.90;;
52724;SDS011;38621;52.830;6.914;2024-02-28T02:50:11;112.13;;;94.40;;
52724;SDS011;38621;52.830;6.914;2024-02-28T02:52:37;103.13;;;93.70;;
52724;SDS011;38621;52.830;6.914;2024-02-28T02:55:03;72.70;;;66.90;;
52724;SDS011;38621;52.830;6.914;2024-02-28T02:57:29;90.38;;;84.57;;
52724;SDS011;38621;52.830;6.914;2024-02-28T02:59:57;85.57;;;79.43;;
52724;SDS011;38621;52.830;6.914;2024-02-28T03:02:22;100.50;;;92.15;;
52724;SDS011;38621;52.830;6.914;2024-02-28T03:04:48;97.35;;;91.07;;
52724;SDS011;38621;52.830;6.914;2024-02-28T03:07:14;93.47;;;87.13;;
52724;SDS011;38621;52.830;6.914;2024-02-28T03:09:39;85.00;;;78.80;;
52724;SDS011;38621;52.830;6.914;2024-02-28T03:12:06;88.45;;;81.93;;
52724;SDS011;38621;52.830;6.914;2024-02-28T03:14:32;89.05;;;81.60;;
52724;SDS011;38621;52.830;6.914;2024-02-28T03:16:58;81.22;;;74.03;;
52724;SDS011;38621;52.830;6.914;2024-02-28T03:19:23;85.78;;;80.50;;
52724;SDS011;38621;52.830;6.914;2024-02-28T03:21:49;94.15;;;88.15;;
52724;SDS011;38621;52.830;6.914;2024-02-28T03:24:15;92.13;;;86.10;;
52724;SDS011;38621;52.830;6.914;2024-02-28T03:26:42;99.97;;;93.80;;
52724;SDS011;38621;52.830;6.914;2024-02-28T03:29:08;95.00;;;88.35;;
52724;SDS011;38621;52.830;6.914;2024-02-28T03:31:34;86.00;;;78.63;;
52724;SDS011;38621;52.830;6.914;2024-02-28T03:33:59;85.22;;;79.10;;
52724;SDS011;38621;52.830;6.914;2024-02-28T03:36:27;92.78;;;86.55;;
52724;SDS011;38621;52.830;6.914;2024-02-28T03:38:54;81.80;;;75.55;;
52724;SDS011;38621;52.830;6.914;2024-02-28T03:41:19;89.45;;;84.20;;
52724;SDS011;38621;52.830;6.914;2024-02-28T03:43:45;98.05;;;92.53;;
52724;SDS011;38621;52.830;6.914;2024-02-28T03:46:11;92.82;;;85.70;;
52724;SDS011;38621;52.830;6.914;2024-02-28T03:48:36;97.18;;;91.72;;
52724;SDS011;38621;52.830;6.914;2024-02-28T03:51:02;104.75;;;98.85;;
52724;SDS011;38621;52.830;6.914;2024-02-28T03:53:28;86.63;;;80.72;;
52724;SDS011;38621;52.830;6.914;2024-02-28T03:55:54;90.32;;;82.68;;
52724;SDS011;38621;52.830;6.914;2024-02-28T03:58:20;99.95;;;94.03;;
52724;SDS011;38621;52.830;6.914;2024-02-28T04:00:46;98.00;;;92.32;;
52724;SDS011;38621;52.830;6.914;2024-02-28T04:03:11;82.88;;;77.50;;
52724;SDS011;38621;52.830;6.914;2024-02-28T04:05:39;75.35;;;69.85;;
52724;SDS011;38621;52.830;6.914;2024-02-28T04:08:05;92.43;;;86.07;;
52724;SDS011;38621;52.830;6.914;2024-02-28T04:10:31;81.72;;;76.38;;
52724;SDS011;38621;52.830;6.914;2024-02-28T04:12:57;89.32;;;83.35;;
52724;SDS011;38621;52.830;6.914;2024-02-28T04:15:22;89.18;;;82.93;;
52724;SDS011;38621;52.830;6.914;2024-02-28T04:17:51;96.13;;;90.43;;
52724;SDS011;38621;52.830;6.914;2024-02-28T04:20:17;87.82;;;82.20;;
52724;SDS011;38621;52.830;6.914;2024-02-28T04:22:43;90.72;;;84.47;;
52724;SDS011;38621;52.830;6.914;2024-02-28T04:25:08;97.85;;;92.78;;
52724;SDS011;38621;52.830;6.914;2024-02-28T04:27:35;96.88;;;91.35;;
52724;SDS011;38621;52.830;6.914;2024-02-28T04:30:01;91.03;;;85.35;;
52724;SDS011;38621;52.830;6.914;2024-02-28T04:32:27;101.22;;;95.07;;
52724;SDS011;38621;52.830;6.914;2024-02-28T04:34:53;127.80;;;121.18;;
52724;SDS011;38621;52.830;6.914;2024-02-28T04:37:19;102.30;;;96.85;;
52724;SDS011;38621;52.830;6.914;2024-02-28T04:39:44;123.70;;;117.95;;
52724;SDS011;38621;52.830;6.914;2024-02-28T04:42:10;90.93;;;85.05;;
52724;SDS011;38621;52.830;6.914;2024-02-28T04:44:36;111.22;;;105.22;;
52724;SDS011;38621;52.830;6.914;2024-02-28T04:47:01;101.65;;;96.50;;
52724;SDS011;38621;52.830;6.914;2024-02-28T04:49:27;120.63;;;114.15;;
52724;SDS011;38621;52.830;6.914;2024-02-28T04:51:53;89.05;;;84.00;;
52724;SDS011;38621;52.830;6.914;2024-02-28T04:54:19;93.93;;;88.88;;
52724;SDS011;38621;52.830;6.914;2024-02-28T04:56:45;92.28;;;86.47;;
52724;SDS011;38621;52.830;6.914;2024-02-28T04:59:11;110.22;;;104.65;;
52724;SDS011;38621;52.830;6.914;2024-02-28T05:01:38;116.90;;;110.20;;
52724;SDS011;38621;52.830;6.914;2024-02-28T05:04:08;90.40;;;84.78;;
52724;SDS011;38621;52.830;6.914;2024-02-28T05:06:35;85.60;;;80.28;;
52724;SDS011;38621;52.830;6.914;2024-02-28T05:09:01;74.65;;;69.25;;
52724;SDS011;38621;52.830;6.914;2024-02-28T05:11:27;91.60;;;85.70;;
52724;SDS011;38621;52.830;6.914;2024-02-28T05:13:52;99.10;;;93.35;;
52724;SDS011;38621;52.830;6.914;2024-02-28T05:16:18;95.05;;;88.85;;
52724;SDS011;38621;52.830;6.914;2024-02-28T05:18:44;112.88;;;106.47;;
52724;SDS011;38621;52.830;6.914;2024-02-28T05:21:11;93.43;;;87.80;;
52724;SDS011;38621;52.830;6.914;2024-02-28T05:23:37;88.10;;;82.53;;
52724;SDS011;38621;52.830;6.914;2024-02-28T05:26:02;115.72;;;109.68;;
52724;SDS011;38621;52.830;6.914;2024-02-28T05:28:32;98.68;;;93.40;;
52724;SDS011;38621;52.830;6.914;2024-02-28T05:31:00;82.70;;;77.50;;
52724;SDS011;38621;52.830;6.914;2024-02-28T05:33:46;102.60;;;96.72;;
52724;SDS011;38621;52.830;6.914;2024-02-28T05:36:12;93.32;;;87.53;;
52724;SDS011;38621;52.830;6.914;2024-02-28T05:38:38;107.78;;;101.95;;
52724;SDS011;38621;52.830;6.914;2024-02-28T05:41:03;83.57;;;78.82;;
52724;SDS011;38621;52.830;6.914;2024-02-28T05:43:29;96.57;;;90.78;;
52724;SDS011;38621;52.830;6.914;2024-02-28T05:45:55;99.88;;;94.13;;
52724;SDS011;38621;52.830;6.914;2024-02-28T05:48:20;97.47;;;91.80;;
52724;SDS011;38621;52.830;6.914;2024-02-28T05:50:46;93.82;;;88.40;;
52724;SDS011;38621;52.830;6.914;2024-02-28T05:53:12;97.25;;;91.57;;
52724;SDS011;38621;52.830;6.914;2024-02-28T05:55:37;98.00;;;91.60;;
52724;SDS011;38621;52.830;6.914;2024-02-28T05:58:03;106.50;;;99.97;;
52724;SDS011;38621;52.830;6.914;2024-02-28T06:00:29;98.47;;;92.95;;
52724;SDS011;38621;52.830;6.914;2024-02-28T06:02:54;100.15;;;94.30;;
52724;SDS011;38621;52.830;6.914;2024-02-28T06:05:20;137.43;;;130.57;;
52724;SDS011;38621;52.830;6.914;2024-02-28T06:07:45;118.22;;;111.60;;
52724;SDS011;38621;52.830;6.914;2024-02-28T06:10:11;109.93;;;104.03;;
52724;SDS011;38621;52.830;6.914;2024-02-28T06:12:37;126.30;;;119.65;;
52724;SDS011;38621;52.830;6.914;2024-02-28T06:15:03;127.00;;;120.72;;
52724;SDS011;38621;52.830;6.914;2024-02-28T06:17:29;118.30;;;111.88;;
52724;SDS011;38621;52.830;6.914;2024-02-28T06:19:55;113.80;;;108.40;;
52724;SDS011;38621;52.830;6.914;2024-02-28T06:22:21;123.57;;;117.10;;
52724;SDS011;38621;52.830;6.914;2024-02-28T06:24:47;108.72;;;102.80;;
52724;SDS011;38621;52.830;6.914;2024-02-28T06:27:12;148.93;;;141.70;;
52724;SDS011;38621;52.830;6.914;2024-02-28T06:29:38;120.65;;;114.15;;
52724;SDS011;38621;52.830;6.914;2024-02-28T06:32:05;180.07;;;172.50;;
52724;SDS011;38621;52.830;6.914;2024-02-28T06:34:31;126.55;;;119.70;;
52724;SDS011;38621;52.830;6.914;2024-02-28T06:36:57;130.13;;;123.72;;
52724;SDS011;38621;52.830;6.914;2024-02-28T06:39:22;126.13;;;119.90;;
52724;SDS011;38621;52.830;6.914;2024-02-28T06:41:48;133.30;;;126.57;;
52724;SDS011;38621;52.830;6.914;2024-02-28T06:44:20;122.20;;;115.57;;
52724;SDS011;38621;52.830;6.914;2024-02-28T06:46:45;111.30;;;105.25;;
52724;SDS011;38621;52.830;6.914;2024-02-28T06:49:11;127.07;;;120.70;;
52724;SDS011;38621;52.830;6.914;2024-02-28T06:51:37;154.13;;;146.05;;
52724;SDS011;38621;52.830;6.914;2024-02-28T06:54:03;154.80;;;147.18;;
52724;SDS011;38621;52.830;6.914;2024-02-28T06:56:30;127.78;;;121.43;;
52724;SDS011;38621;52.830;6.914;2024-02-28T06:58:55;128.55;;;121.88;;
52724;SDS011;38621;52.830;6.914;2024-02-28T07:01:21;121.97;;;116.03;;
52724;SDS011;38621;52.830;6.914;2024-02-28T07:03:47;139.10;;;131.82;;
52724;SDS011;38621;52.830;6.914;2024-02-28T07:06:13;187.77;;;179.63;;
52724;SDS011;38621;52.830;6.914;2024-02-28T07:08:38;148.57;;;141.40;;
52724;SDS011;38621;52.830;6.914;2024-02-28T07:11:04;154.07;;;146.82;;
52724;SDS011;38621;52.830;6.914;2024-02-28T07:13:30;114.13;;;107.72;;
52724;SDS011;38621;52.830;6.914;2024-02-28T07:15:55;133.73;;;126.93;;
52724;SDS011;38621;52.830;6.914;2024-02-28T07:18:23;156.70;;;148.80;;
52724;SDS011;38621;52.830;6.914;2024-02-28T07:20:51;112.68;;;106.38;;
52724;SDS011;38621;52.830;6.914;2024-02-28T07:23:17;180.35;;;172.30;;
52724;SDS011;38621;52.830;6.914;2024-02-28T07:25:43;130.20;;;123.38;;
52724;SDS011;38621;52.830;6.914;2024-02-28T07:28:08;134.88;;;128.02;;
52724;SDS011;38621;52.830;6.914;2024-02-28T07:30:34;154.52;;;147.20;;
52724;SDS011;38621;52.830;6.914;2024-02-28T07:33:00;249.27;;;238.55;;
52724;SDS011;38621;52.830;6.914;2024-02-28T07:35:26;128.00;;;120.85;;
52724;SDS011;38621;52.830;6.914;2024-02-28T07:37:53;167.45;;;159.52;;
52724;SDS011;38621;52.830;6.914;2024-02-28T07:40:19;225.52;;;215.75;;
52724;SDS011;38621;52.830;6.914;2024-02-28T07:42:44;233.00;;;222.90;;
52724;SDS011;38621;52.830;6.914;2024-02-28T07:45:10;131.18;;;124.47;;
52724;SDS011;38621;52.830;6.914;2024-02-28T07:47:36;126.80;;;120.15;;
52724;SDS011;38621;52.830;6.914;2024-02-28T07:50:02;132.38;;;125.68;;
52724;SDS011;38621;52.830;6.914;2024-02-28T07:52:28;153.32;;;146.02;;
52724;SDS011;38621;52.830;6.914;2024-02-28T07:54:54;154.60;;;147.25;;
52724;SDS011;38621;52.830;6.914;2024-02-28T07:57:19;200.98;;;192.15;;
52724;SDS011;38621;52.830;6.914;2024-02-28T07:59:45;225.30;;;214.60;;
52724;SDS011;38621;52.830;6.914;2024-02-28T08:02:11;141.57;;;134.27;;
52724;SDS011;38621;52.830;6.914;2024-02-28T08:04:38;168.10;;;160.43;;
52724;SDS011;38621;52.830;6.914;2024-02-28T08:07:04;142.40;;;135.48;;
52724;SDS011;38621;52.830;6.914;2024-02-28T08:09:31;223.38;;;212.82;;
52724;SDS011;38621;52.830;6.914;2024-02-28T08:11:56;254.52;;;244.00;;
52724;SDS011;38621;52.830;6.914;2024-02-28T08:14:24;176.85;;;168.57;;
52724;SDS011;38621;52.830;6.914;2024-02-28T08:16:49;227.05;;;216.73;;
52724;SDS011;38621;52.830;6.914;2024-02-28T08:19:15;143.02;;;136.13;;
52724;SDS011;38621;52.830;6.914;2024-02-28T08:21:42;156.07;;;148.88;;
52724;SDS011;38621;52.830;6.914;2024-02-28T08:24:08;162.00;;;154.73;;
52724;SDS011;38621;52.830;6.914;2024-02-28T08:26:34;194.15;;;186.20;;
52724;SDS011;38621;52.830;6.914;2024-02-28T08:29:01;182.85;;;174.60;;
52724;SDS011;38621;52.830;6.914;2024-02-28T08:31:27;177.63;;;169.82;;
52724;SDS011;38621;52.830;6.914;2024-02-28T08:33:53;127.60;;;121.10;;
52724;SDS011;38621;52.830;6.914;2024-02-28T08:36:20;246.38;;;235.70;;
52724;SDS011;38621;52.830;6.914;2024-02-28T08:38:46;177.38;;;169.48;;
52724;SDS011;38621;52.830;6.914;2024-02-28T08:41:12;138.48;;;131.45;;
52724;SDS011;38621;52.830;6.914;2024-02-28T08:43:39;198.52;;;190.32;;
52724;SDS011;38621;52.830;6.914;2024-02-28T08:46:05;166.40;;;158.93;;
52724;SDS011;38621;52.830;6.914;2024-02-28T08:48:31;153.43;;;146.13;;
52724;SDS011;38621;52.830;6.914;2024-02-28T08:50:58;171.38;;;163.75;;
52724;SDS011;38621;52.830;6.914;2024-02-28T08:53:23;189.75;;;181.18;;
52724;SDS011;38621;52.830;6.914;2024-02-28T08:55:49;193.00;;;184.65;;
52724;SDS011;38621;52.830;6.914;2024-02-28T08:58:15;178.52;;;171.00;;
52724;SDS011;38621;52.830;6.914;2024-02-28T09:00:41;130.18;;;123.65;;
52724;SDS011;38621;52.830;6.914;2024-02-28T09:03:07;144.55;;;137.98;;
52724;SDS011;38621;52.830;6.914;2024-02-28T09:05:32;152.65;;;146.07;;
52724;SDS011;38621;52.830;6.914;2024-02-28T09:07:58;196.85;;;188.32;;
52724;SDS011;38621;52.830;6.914;2024-02-28T09:10:24;128.32;;;122.13;;
52724;SDS011;38621;52.830;6.914;2024-02-28T09:12:50;169.55;;;162.00;;
52724;SDS011;38621;52.830;6.914;2024-02-28T09:15:16;197.80;;;189.10;;
52724;SDS011;38621;52.830;6.914;2024-02-28T09:17:43;142.88;;;135.95;;
52724;SDS011;38621;52.830;6.914;2024-02-28T09:20:09;127.60;;;121.28;;
52724;SDS011;38621;52.830;6.914;2024-02-28T09:22:35;142.68;;;135.80;;
52724;SDS011;38621;52.830;6.914;2024-02-28T09:25:01;191.65;;;183.57;;
52724;SDS011;38621;52.830;6.914;2024-02-28T09:27:29;158.50;;;151.38;;
52724;SDS011;38621;52.830;6.914;2024-02-28T09:29:56;144.50;;;138.02;;
52724;SDS011;38621;52.830;6.914;2024-02-28T09:32:21;131.30;;;125.03;;
52724;SDS011;38621;52.830;6.914;2024-02-28T09:34:48;141.38;;;134.25;;
52724;SDS011;38621;52.830;6.914;2024-02-28T09:37:14;148.90;;;142.10;;
52724;SDS011;38621;52.830;6.914;2024-02-28T09:39:42;157.05;;;150.07;;
52724;SDS011;38621;52.830;6.914;2024-02-28T09:42:09;164.77;;;157.52;;
52724;SDS011;38621;52.830;6.914;2024-02-28T09:44:36;184.13;;;176.23;;
52724;SDS011;38621;52.830;6.914;2024-02-28T09:47:02;132.32;;;126.03;;
52724;SDS011;38621;52.830;6.914;2024-02-28T09:49:31;154.75;;;147.50;;
52724;SDS011;38621;52.830;6.914;2024-02-28T09:51:58;162.38;;;154.90;;
52724;SDS011;38621;52.830;6.914;2024-02-28T09:54:24;142.57;;;135.82;;
52724;SDS011;38621;52.830;6.914;2024-02-28T09:56:51;182.10;;;173.80;;
52724;SDS011;38621;52.830;6.914;2024-02-28T09:59:19;162.15;;;154.52;;
52724;SDS011;38621;52.830;6.914;2024-02-28T10:01:52;155.82;;;148.98;;
52724;SDS011;38621;52.830;6.914;2024-02-28T10:04:23;161.15;;;153.73;;
52724;SDS011;38621;52.830;6.914;2024-02-28T10:06:50;136.35;;;129.63;;
52724;SDS011;38621;52.830;6.914;2024-02-28T10:09:16;160.63;;;153.55;;
52724;SDS011;38621;52.830;6.914;2024-02-28T10:11:42;129.25;;;122.53;;
52724;SDS011;38621;52.830;6.914;2024-02-28T10:14:20;243.32;;;232.90;;
52724;SDS011;38621;52.830;6.914;2024-02-28T10:16:46;227.75;;;218.45;;
52724;SDS011;38621;52.830;6.914;2024-02-28T10:19:12;123.00;;;116.80;;
52724;SDS011;38621;52.830;6.914;2024-02-28T10:21:38;176.45;;;168.13;;
52724;SDS011;38621;52.830;6.914;2024-02-28T10:24:04;207.10;;;198.02;;
52724;SDS011;38621;52.830;6.914;2024-02-28T10:26:30;150.65;;;143.45;;
52724;SDS011;38621;52.830;6.914;2024-02-28T10:29:00;119.20;;;113.25;;
52724;SDS011;38621;52.830;6.914;2024-02-28T10:31:28;142.55;;;136.07;;
52724;SDS011;38621;52.830;6.914;2024-02-28T10:33:57;140.60;;;134.32;;
52724;SDS011;38621;52.830;6.914;2024-02-28T10:36:23;134.23;;;128.13;;
52724;SDS011;38621;52.830;6.914;2024-02-28T10:38:49;117.80;;;112.05;;
52724;SDS011;38621;52.830;6.914;2024-02-28T10:41:15;182.57;;;173.90;;
52724;SDS011;38621;52.830;6.914;2024-02-28T10:43:41;124.97;;;118.60;;
52724;SDS011;38621;52.830;6.914;2024-02-28T10:46:08;106.10;;;100.70;;
52724;SDS011;38621;52.830;6.914;2024-02-28T10:48:34;111.35;;;105.57;;
52724;SDS011;38621;52.830;6.914;2024-02-28T10:51:00;132.38;;;126.13;;
52724;SDS011;38621;52.830;6.914;2024-02-28T10:53:36;138.50;;;131.77;;
52724;SDS011;38621;52.830;6.914;2024-02-28T10:56:06;127.00;;;120.53;;
52724;SDS011;38621;52.830;6.914;2024-02-28T10:58:36;227.80;;;217.45;;
52724;SDS011;38621;52.830;6.914;2024-02-28T11:01:05;141.73;;;134.70;;
52724;SDS011;38621;52.830;6.914;2024-02-28T11:03:33;142.35;;;135.68;;
52724;SDS011;38621;52.830;6.914;2024-02-28T11:05:59;129.65;;;123.05;;
52724;SDS011;38621;52.830;6.914;2024-02-28T11:08:26;187.32;;;179.52;;
52724;SDS011;38621;52.830;6.914;2024-02-28T11:13:31;180.52;;;172.07;;
52724;SDS011;38621;52.830;6.914;2024-02-28T11:16:06;223.63;;;213.60;;
52724;SDS011;38621;52.830;6.914;2024-02-28T11:18:33;223.55;;;214.02;;
52724;SDS011;38621;52.830;6.914;2024-02-28T11:20:58;152.80;;;145.25;;
52724;SDS011;38621;52.830;6.914;2024-02-28T11:23:24;148.07;;;140.38;;
52724;SDS011;38621;52.830;6.914;2024-02-28T11:25:51;160.25;;;152.57;;
52724;SDS011;38621;52.830;6.914;2024-02-28T11:28:17;173.88;;;166.10;;
52724;SDS011;38621;52.830;6.914;2024-02-28T11:30:47;168.20;;;160.20;;
52724;SDS011;38621;52.830;6.914;2024-02-28T11:33:13;137.68;;;130.85;;
52724;SDS011;38621;52.830;6.914;2024-02-28T11:35:39;226.70;;;216.50;;
52724;SDS011;38621;52.830;6.914;2024-02-28T11:38:06;137.38;;;130.95;;
52724;SDS011;38621;52.830;6.914;2024-02-28T11:40:32;137.00;;;130.55;;
52724;SDS011;38621;52.830;6.914;2024-02-28T11:42:57;197.60;;;188.07;;
52724;SDS011;38621;52.830;6.914;2024-02-28T11:45:24;132.10;;;125.88;;
52724;SDS011;38621;52.830;6.914;2024-02-28T11:47:50;160.88;;;152.93;;
52724;SDS011;38621;52.830;6.914;2024-02-28T11:50:16;108.90;;;102.68;;
52724;SDS011;38621;52.830;6.914;2024-02-28T11:52:44;102.63;;;97.57;;
52724;SDS011;38621;52.830;6.914;2024-02-28T11:55:10;134.27;;;127.85;;
52724;SDS011;38621;52.830;6.914;2024-02-28T11:57:36;105.13;;;99.60;;
52724;SDS011;38621;52.830;6.914;2024-02-28T12:00:03;114.32;;;108.22;;
52724;SDS011;38621;52.830;6.914;2024-02-28T12:02:32;104.22;;;98.78;;
52724;SDS011;38621;52.830;6.914;2024-02-28T12:05:02;100.00;;;94.60;;
52724;SDS011;38621;52.830;6.914;2024-02-28T12:07:29;130.32;;;124.07;;
52724;SDS011;38621;52.830;6.914;2024-02-28T12:09:55;111.45;;;106.13;;
52724;SDS011;38621;52.830;6.914;2024-02-28T12:12:22;98.85;;;93.68;;
52724;SDS011;38621;52.830;6.914;2024-02-28T12:14:48;125.75;;;119.70;;
52724;SDS011;38621;52.830;6.914;2024-02-28T12:17:16;125.70;;;119.83;;
52724;SDS011;38621;52.830;6.914;2024-02-28T12:19:42;108.55;;;103.13;;
52724;SDS011;38621;52.830;6.914;2024-02-28T12:22:08;130.60;;;124.15;;
52724;SDS011;38621;52.830;6.914;2024-02-28T12:24:34;111.90;;;106.25;;
52724;SDS011;38621;52.830;6.914;2024-02-28T12:27:00;138.25;;;131.82;;
52724;SDS011;38621;52.830;6.914;2024-02-28T12:29:26;105.43;;;99.55;;
52724;SDS011;38621;52.830;6.914;2024-02-28T12:31:51;116.00;;;110.20;;
52724;SDS011;38621;52.830;6.914;2024-02-28T12:34:17;100.00;;;94.70;;
52724;SDS011;38621;52.830;6.914;2024-02-28T12:36:43;101.88;;;97.10;;
52724;SDS011;38621;52.830;6.914;2024-02-28T12:39:09;109.88;;;104.50;;
52724;SDS011;38621;52.830;6.914;2024-02-28T12:41:37;94.40;;;89.22;;
52724;SDS011;38621;52.830;6.914;2024-02-28T12:44:05;111.50;;;105.90;;
52724;SDS011;38621;52.830;6.914;2024-02-28T12:46:31;115.07;;;109.35;;
52724;SDS011;38621;52.830;6.914;2024-02-28T12:48:58;133.80;;;127.25;;
52724;SDS011;38621;52.830;6.914;2024-02-28T12:54:06;79.28;;;74.63;;
52724;SDS011;38621;52.830;6.914;2024-02-28T12:56:33;82.35;;;77.75;;
52724;SDS011;38621;52.830;6.914;2024-02-28T12:58:59;88.43;;;83.65;;
52724;SDS011;38621;52.830;6.914;2024-02-28T13:01:26;90.22;;;85.50;;
52724;SDS011;38621;52.830;6.914;2024-02-28T13:03:52;112.88;;;107.38;;
52724;SDS011;38621;52.830;6.914;2024-02-28T13:06:18;119.43;;;113.35;;
52724;SDS011;38621;52.830;6.914;2024-02-28T13:08:44;115.45;;;109.25;;
52724;SDS011;38621;52.830;6.914;2024-02-28T13:11:10;130.98;;;124.57;;
52724;SDS011;38621;52.830;6.914;2024-02-28T13:13:37;109.50;;;103.88;;
52724;SDS011;38621;52.830;6.914;2024-02-28T13:16:02;109.10;;;103.70;;
52724;SDS011;38621;52.830;6.914;2024-02-28T13:18:28;109.05;;;103.72;;
52724;SDS011;38621;52.830;6.914;2024-02-28T13:20:54;146.80;;;139.93;;
52724;SDS011;38621;52.830;6.914;2024-02-28T13:23:20;107.95;;;102.07;;
52724;SDS011;38621;52.830;6.914;2024-02-28T13:25:45;132.68;;;126.43;;
52724;SDS011;38621;52.830;6.914;2024-02-28T13:28:11;108.43;;;102.72;;
52724;SDS011;38621;52.830;6.914;2024-02-28T13:30:37;93.18;;;88.00;;
52724;SDS011;38621;52.830;6.914;2024-02-28T13:33:03;109.60;;;103.75;;
52724;SDS011;38621;52.830;6.914;2024-02-28T13:35:29;116.13;;;110.55;;
52724;SDS011;38621;52.830;6.914;2024-02-28T13:37:55;155.38;;;148.25;;
52724;SDS011;38621;52.830;6.914;2024-02-28T13:40:28;124.93;;;118.53;;
52724;SDS011;38621;52.830;6.914;2024-02-28T13:42:54;145.13;;;138.50;;
52724;SDS011;38621;52.830;6.914;2024-02-28T13:45:19;181.40;;;173.27;;
52724;SDS011;38621;52.830;6.914;2024-02-28T13:47:45;130.18;;;123.93;;
52724;SDS011;38621;52.830;6.914;2024-02-28T13:50:11;142.77;;;135.85;;
52724;SDS011;38621;52.830;6.914;2024-02-28T13:52:37;106.22;;;100.43;;
52724;SDS011;38621;52.830;6.914;2024-02-28T13:55:02;119.57;;;113.25;;
52724;SDS011;38621;52.830;6.914;2024-02-28T13:57:28;129.00;;;122.47;;
52724;SDS011;38621;52.830;6.914;2024-02-28T13:59:54;194.55;;;185.52;;
52724;SDS011;38621;52.830;6.914;2024-02-28T14:02:23;175.48;;;167.77;;
52724;SDS011;38621;52.830;6.914;2024-02-28T14:04:51;146.48;;;139.07;;